Time;durP1;ratioP1;P1;durP2;ratioP2;P2;SDS_P1;SDS_P2;PMS_P1;PMS_P2;Temp;Humidity;BMP_temperature;BMP_pressure;BME280_temperature;BME280_humidity;BME280_pressure;Samples;Min_cycle;Max_cycle;Signal;HPM_P1;HPM_P2
2023/01/18 00:04:22;;;;;;;7.43;2.55;;;;;;;;;;5040184;28;20128;-85
2023/01/18 00:06:51;;;;;;;2.42;2.22;;;-0.30;99.90;;;;;;5052826;28;20409;-86
2023/01/18 00:09:16;;;;;;;6.88;2.47;;;1.20;99.90;;;;;;5050589;28;20045;-85
2023/01/18 00:11:42;;;;;;;4.68;2.35;;;-1.60;99.90;;;;;;5051705;28;20067;-86
2023/01/18 00:14:08;;;;;;;4.22;2.65;;;;;;;;;;5034692;28;20053;-84
2023/01/18 00:16:34;;;;;;;5.57;2.78;;;;;;;;;;5050654;28;20484;-85
2023/01/18 00:19:00;;;;;;;3.28;2.03;;;-0.30;99.90;;;;;;5034814;28;20093;-85
2023/01/18 00:21:26;;;;;;;6.28;2.33;;;1.80;99.90;;;;;;5059485;28;20037;-85
2023/01/18 00:23:54;;;;;;;5.50;2.40;;;1.20;99.90;;;;;;5065793;28;20040;-86
2023/01/18 00:26:20;;;;;;;5.85;2.83;;;;;;;;;;5053373;28;20049;-86
2023/01/18 00:28:46;;;;;;;2.47;2.28;;;-0.30;99.90;;;;;;5051424;28;20071;-86
2023/01/18 00:31:16;;;;;;;3.53;2.03;;;-0.60;99.90;;;;;;5033942;28;20041;-85
2023/01/18 00:33:47;;;;;;;2.55;1.90;;;-0.30;99.90;;;;;;5050004;28;20063;-84
2023/01/18 00:36:14;;;;;;;4.60;2.03;;;-0.30;99.90;;;;;;5031429;28;20052;-85
2023/01/18 00:38:40;;;;;;;6.47;2.13;;;-1.00;99.90;;;;;;5046171;28;20045;-86
2023/01/18 00:41:05;;;;;;;5.35;2.70;;;0.90;99.90;;;;;;5051104;28;20101;-86
2023/01/18 00:43:46;;;;;;;4.28;2.33;;;-0.40;99.90;;;;;;5036271;28;20041;-84
2023/01/18 00:46:16;;;;;;;3.15;2.15;;;-0.10;99.90;;;;;;5037635;28;20037;-85
2023/01/18 00:48:43;;;;;;;4.05;2.13;;;0.00;99.90;;;;;;5051609;28;20492;-84
2023/01/18 00:51:12;;;;;;;7.07;2.22;;;1.30;99.90;;;;;;5050283;28;20048;-86
2023/01/18 00:53:38;;;;;;;5.85;2.53;;;1.00;99.90;;;;;;5050681;28;20071;-84
2023/01/18 00:56:09;;;;;;;5.45;2.72;;;0.90;99.90;;;;;;5034461;28;20045;-84
2023/01/18 00:58:36;;;;;;;3.00;2.17;;;-2.10;99.90;;;;;;5049421;28;20516;-84
2023/01/18 01:01:02;;;;;;;3.53;2.28;;;;;;;;;;5051141;28;20045;-86
2023/01/18 01:06:42;;;;;;;3.60;2.25;;;-0.40;99.90;;;;;;5050461;28;20044;-85
2023/01/18 01:06:43;;;;;;;3.58;2.25;;;2.20;99.90;;;;;;5042321;28;20545;-86
2023/01/18 01:09:10;;;;;;;9.10;2.47;;;-0.50;99.90;;;;;;5050505;28;20049;-86
2023/01/18 01:11:35;;;;;;;8.50;2.53;;;-1.10;99.90;;;;;;5052147;28;20476;-84
2023/01/18 01:27:44;;;;;;;2.60;1.98;;;3.00;99.90;;;;;;5049688;28;20049;-84
2023/01/18 01:30:10;;;;;;;2.55;2.20;;;1.20;99.90;;;;;;5032442;28;20392;-85
2023/01/18 01:32:35;;;;;;;3.60;2.08;;;-0.40;99.90;;;;;;5032814;28;20045;-85
2023/01/18 01:35:01;;;;;;;2.70;1.90;;;-0.70;99.90;;;;;;5049324;28;20118;-85
2023/01/18 01:37:27;;;;;;;4.38;2.30;;;-0.40;99.90;;;;;;5049348;28;20518;-85
2023/01/18 01:39:53;;;;;;;4.45;1.90;;;0.00;99.90;;;;;;5033767;28;20131;-85
2023/01/18 01:42:18;;;;;;;4.05;2.45;;;-0.70;99.90;;;;;;5032192;28;20052;-84
2023/01/18 01:44:50;;;;;;;5.07;2.25;;;1.00;99.90;;;;;;5050343;28;20064;-85
2023/01/18 01:47:25;;;;;;;3.53;2.55;;;1.20;99.90;;;;;;5040932;28;20138;-86
2023/01/18 01:49:57;;;;;;;6.03;2.25;;;3.00;99.90;;;;;;5032997;28;20036;-85
2023/01/18 01:52:29;;;;;;;4.80;2.53;;;0.00;99.90;;;;;;5024692;28;20044;-84
2023/01/18 01:54:55;;;;;;;4.43;2.67;;;1.00;99.90;;;;;;5048757;28;20051;-85
2023/01/18 01:57:25;;;;;;;2.72;2.40;;;1.30;99.90;;;;;;5048979;28;20033;-84
2023/01/18 02:00:23;;;;;;;6.88;2.50;;;1.00;99.90;;;;;;5049514;28;20085;-86
2023/01/18 02:02:55;;;;;;;4.47;2.53;;;-0.50;99.90;;;;;;5043386;28;20109;-84
2023/01/18 02:05:21;;;;;;;5.60;2.55;;;-0.50;99.90;;;;;;5035308;28;20056;-85
2023/01/18 02:07:47;;;;;;;5.60;2.80;;;2.10;99.90;;;;;;5034416;28;20037;-85
2023/01/18 02:10:13;;;;;;;3.13;2.00;;;1.10;99.90;;;;;;5031746;28;20198;-85
2023/01/18 02:12:41;;;;;;;5.32;2.33;;;0.40;99.90;;;;;;5032724;28;20124;-86
2023/01/18 02:15:07;;;;;;;3.38;3.08;;;-0.50;99.90;;;;;;5049385;28;20091;-86
2023/01/18 02:18:21;;;;;;;5.43;2.28;;;-0.50;99.90;;;;;;5033126;28;20064;-85
2023/01/18 02:21:11;;;;;;;4.32;2.60;;;-0.50;99.90;;;;;;5018539;28;20393;-84
2023/01/18 02:24:08;;;;;;;3.97;3.05;;;-0.10;99.90;;;;;;5062724;28;20045;-85
2023/01/18 02:27:04;;;;;;;5.43;2.53;;;-0.40;99.90;;;;;;5046577;28;20502;-85
2023/01/18 02:30:07;;;;;;;5.05;3.08;;;-0.60;99.90;;;;;;5045365;28;20079;-86
2023/01/18 02:32:51;;;;;;;7.20;3.35;;;-0.40;99.90;;;;;;5063177;28;20120;-85
2023/01/18 02:35:49;;;;;;;4.47;2.85;;;-0.60;99.90;;;;;;5070765;28;20116;-85
2023/01/18 02:38:20;;;;;;;7.43;2.95;;;-0.60;99.90;;;;;;5052929;28;20048;-84
2023/01/18 02:40:54;;;;;;;7.32;2.90;;;0.90;99.90;;;;;;5055911;28;20051;-84
2023/01/18 02:48:54;;;;;;;5.45;2.70;;;-0.10;99.90;;;;;;5052048;28;19996;-85
2023/01/18 02:51:20;;;;;;;4.03;2.40;;;-1.00;99.90;;;;;;5034765;28;20587;-86
2023/01/18 02:53:47;;;;;;;5.25;2.80;;;-0.60;99.90;;;;;;5052543;28;20119;-85
2023/01/18 02:56:15;;;;;;;5.10;2.95;;;-0.40;99.90;;;;;;5036009;28;20098;-86
2023/01/18 02:58:50;;;;;;;4.78;2.85;;;-1.20;99.90;;;;;;5052012;28;20105;-86
2023/01/18 03:01:37;;;;;;;6.25;3.00;;;0.70;99.90;;;;;;5053319;28;20041;-85
2023/01/18 03:04:22;;;;;;;3.75;2.80;;;-0.30;99.90;;;;;;5053215;28;20055;-85
2023/01/18 03:07:15;;;;;;;5.60;2.65;;;0.30;99.90;;;;;;5053197;28;20090;-85
2023/01/18 03:09:43;;;;;;;4.15;2.70;;;-0.40;99.90;;;;;;5046884;28;20114;-85
2023/01/18 03:12:12;;;;;;;5.72;2.97;;;-0.50;99.90;;;;;;5036202;28;20495;-85
2023/01/18 03:15:01;;;;;;;3.75;3.25;;;0.20;99.90;;;;;;5052980;28;20491;-85
2023/01/18 03:17:49;;;;;;;4.63;2.58;;;0.40;99.90;;;;;;5029148;28;20036;-85
2023/01/18 03:20:24;;;;;;;5.43;3.22;;;-1.00;99.90;;;;;;5037681;28;20048;-87
2023/01/18 03:25:56;;;;;;;3.47;3.00;;;-0.80;99.90;;;;;;5049982;28;20123;-86
2023/01/18 03:34:27;;;;;;;9.10;3.97;;;-1.40;99.90;;;;;;5071420;28;20131;-87
2023/01/18 03:36:57;;;;;;;5.75;3.72;;;-0.60;99.90;;;;;;5024544;28;20094;-86
2023/01/18 03:39:30;;;;;;;8.43;3.45;;;0.10;99.90;;;;;;5036747;28;20049;-86
2023/01/18 03:42:02;;;;;;;4.53;3.37;;;0.60;99.90;;;;;;5037377;28;20036;-87
2023/01/18 03:44:38;;;;;;;5.25;3.33;;;1.40;99.90;;;;;;5048433;28;20049;-84
2023/01/18 03:47:05;;;;;;;6.20;3.38;;;1.70;99.90;;;;;;5071715;28;20039;-87
2023/01/18 03:49:32;;;;;;;7.03;3.97;;;-1.50;99.90;;;;;;5061015;28;20080;-86
2023/01/18 03:52:17;;;;;;;9.32;3.72;;;1.60;99.90;;;;;;5041450;28;20040;-85
2023/01/18 03:55:22;;;;;;;4.65;4.22;;;-0.90;99.90;;;;;;5051075;28;20394;-86
2023/01/18 03:57:57;;;;;;;;;;;-0.50;99.90;;;;;;5053377;28;20082;-87
2023/01/18 04:00:24;;;;;;;4.10;3.37;;;-0.80;99.90;;;;;;5073668;28;19921;-86
2023/01/18 04:02:52;;;;;;;6.97;3.92;;;0.30;99.90;;;;;;5053676;28;20040;-86
2023/01/18 04:05:18;;;;;;;5.75;3.90;;;-0.40;99.90;;;;;;5055330;28;20044;-86
2023/01/18 04:07:45;;;;;;;5.95;4.30;;;;;;;;;;5074567;28;20037;-86
2023/01/18 04:10:12;;;;;;;5.00;3.83;;;-0.90;99.90;;;;;;5075422;28;20434;-86
2023/01/18 04:12:37;;;;;;;5.10;4.60;;;0.60;99.90;;;;;;5054450;28;20123;-85
2023/01/18 04:15:04;;;;;;;5.72;4.03;;;0.50;99.90;;;;;;5055067;28;20065;-85
2023/01/18 04:17:30;;;;;;;7.93;3.95;;;-0.70;99.90;;;;;;5050074;28;20052;-86
2023/01/18 04:19:56;;;;;;;6.90;4.28;;;-0.30;99.90;;;;;;5041707;28;20049;-86
2023/01/18 04:22:25;;;;;;;7.70;4.15;;;;;;;;;;5039596;28;20067;-86
2023/01/18 04:24:50;;;;;;;5.72;4.13;;;-1.00;99.90;;;;;;5041081;28;20040;-87
2023/01/18 04:27:17;;;;;;;5.15;4.18;;;;;;;;;;5040956;28;20098;-86
2023/01/18 04:29:42;;;;;;;10.32;4.60;;;-0.70;99.90;;;;;;5040284;28;20064;-87
2023/01/18 04:32:08;;;;;;;8.20;4.30;;;-1.30;99.90;;;;;;5041035;28;20048;-87
2023/01/18 04:34:34;;;;;;;10.02;4.40;;;;;;;;;;5040897;28;20040;-87
2023/01/18 04:37:03;;;;;;;9.63;3.92;;;-1.00;99.90;;;;;;5041289;28;20499;-87
2023/01/18 04:39:31;;;;;;;6.40;4.60;;;-0.70;99.90;;;;;;5040440;28;20561;-87
2023/01/18 04:41:57;;;;;;;5.00;3.80;;;0.00;99.90;;;;;;5056912;28;20515;-86
2023/01/18 04:44:23;;;;;;;4.82;3.40;;;-1.50;99.90;;;;;;5039953;28;20040;-85
2023/01/18 04:46:52;;;;;;;9.93;4.18;;;-0.10;99.90;;;;;;5024282;28;20046;-86
2023/01/18 04:49:17;;;;;;;8.52;4.88;;;-0.60;99.90;;;;;;5039966;28;20049;-86
2023/01/18 04:51:45;;;;;;;6.65;4.05;;;2.20;99.90;;;;;;5053372;28;20044;-86
2023/01/18 04:54:13;;;;;;;7.25;3.63;;;-0.10;99.90;;;;;;5023909;28;20083;-86
2023/01/18 04:56:40;;;;;;;5.55;3.92;;;0.80;99.90;;;;;;5056596;28;20029;-86
2023/01/18 04:59:06;;;;;;;8.20;4.65;;;-1.80;99.90;;;;;;5039380;28;20453;-86
2023/01/18 05:01:35;;;;;;;9.48;4.57;;;-1.10;99.90;;;;;;5073086;28;20033;-87
2023/01/18 05:04:02;;;;;;;6.57;4.55;;;;;;;;;;5054681;28;20041;-87
2023/01/18 05:06:28;;;;;;;6.65;4.75;;;-1.00;99.90;;;;;;5038712;28;20052;-86
2023/01/18 05:08:54;;;;;;;7.03;4.85;;;;;;;;;;5038997;28;20221;-86
2023/01/18 05:11:22;;;;;;;7.72;4.07;;;-1.00;99.90;;;;;;5054167;28;20506;-87
2023/01/18 05:13:50;;;;;;;7.03;4.63;;;-0.70;99.90;;;;;;5037823;28;20040;-85
2023/01/18 05:16:18;;;;;;;7.72;4.18;;;0.40;99.90;;;;;;5040020;28;20032;-86
2023/01/18 05:18:54;;;;;;;8.25;4.43;;;-0.70;99.90;;;;;;5037517;28;20056;-86
2023/01/18 05:21:20;;;;;;;8.18;4.53;;;0.10;99.90;;;;;;5037298;28;20070;-86
2023/01/18 05:23:55;;;;;;;8.30;5.28;;;0.10;99.90;;;;;;5067908;28;20540;-87
2023/01/18 05:26:22;;;;;;;8.75;4.68;;;-1.80;99.90;;;;;;5051837;28;20053;-86
2023/01/18 05:28:55;;;;;;;8.65;4.50;;;0.40;99.90;;;;;;5044214;28;20067;-85
2023/01/18 05:31:21;;;;;;;9.05;5.00;;;-0.40;99.90;;;;;;5058874;28;20072;-86
2023/01/18 05:33:50;;;;;;;6.88;4.25;;;0.60;99.90;;;;;;5064326;28;20047;-87
2023/01/18 05:36:16;;;;;;;7.68;4.78;;;0.80;99.90;;;;;;5038259;28;20424;-87
2023/01/18 05:38:51;;;;;;;8.35;5.00;;;-0.80;99.90;;;;;;5051149;28;20048;-87
2023/01/18 05:41:17;;;;;;;5.03;4.30;;;-1.10;99.90;;;;;;5045562;28;20041;-88
2023/01/18 05:43:43;;;;;;;9.30;5.60;;;;;;;;;;5057066;28;20029;-86
2023/01/18 05:46:14;;;;;;;5.88;5.20;;;-1.10;99.90;;;;;;5047710;28;20098;-86
2023/01/18 05:48:40;;;;;;;8.43;4.97;;;-1.20;99.90;;;;;;5037657;28;20048;-87
2023/01/18 05:51:09;;;;;;;8.88;4.93;;;0.90;99.90;;;;;;5039061;28;20051;-86
2023/01/18 05:53:36;;;;;;;8.45;5.88;;;-2.60;99.90;;;;;;5022070;28;20426;-87
2023/01/18 08:20:13;;;;;;;9.27;5.75;;;-2.80;99.90;;;;;;4999564;28;20057;-88
2023/01/18 08:22:53;;;;;;;9.13;5.45;;;-0.70;99.90;;;;;;5018665;28;20041;-90
2023/01/18 08:28:55;;;;;;;9.05;5.60;;;-1.00;99.90;;;;;;4957816;26;20061;-88
2023/01/18 08:31:51;;;;;;;7.75;4.50;;;-0.90;99.90;;;;;;5037499;28;20053;-88
2023/01/18 08:38:02;;;;;;;;;;;;;;;;;;;;;
2023/01/18 08:40:53;;;;;;;10.68;5.57;;;0.40;99.90;;;;;;5037372;28;20108;-87
2023/01/18 08:43:34;;;;;;;10.82;5.32;;;2.30;99.90;;;;;;5031076;28;20454;-88
2023/01/18 08:46:17;;;;;;;12.05;5.60;;;0.70;99.90;;;;;;5027574;28;20099;-88
2023/01/18 08:49:05;;;;;;;7.93;4.55;;;0.10;99.90;;;;;;5035114;28;20053;-88
2023/01/18 08:52:09;;;;;;;8.40;4.72;;;-1.30;99.90;;;;;;5020007;28;20054;-88
2023/01/18 09:20:18;;;;;;;12.63;5.32;;;-0.50;99.90;;;;;;5073410;22;20416;-88
2023/01/18 09:26:15;;;;;;;10.15;5.13;;;1.60;99.90;;;;;;4915998;28;20070;-89
2023/01/18 09:29:20;;;;;;;8.38;5.18;;;1.30;99.90;;;;;;5027024;28;20068;-88
